sensor_id;sensor_type;location;lat;lon;timestamp;P1;durP1;ratioP1;P2;durP2;ratioP2
60853;SDS011;48554;50.766;2.900;2022-09-12T00:00:47;7.67;;;3.07;;
60853;SDS011;48554;50.766;2.900;2022-09-12T00:03:07;5.90;;;2.70;;
60853;SDS011;48554;50.766;2.900;2022-09-12T00:05:28;5.07;;;2.57;;
60853;SDS011;48554;50.766;2.900;2022-09-12T00:07:48;5.03;;;2.67;;
60853;SDS011;48554;50.766;2.900;2022-09-12T00:10:08;5.00;;;2.77;;
60853;SDS011;48554;50.766;2.900;2022-09-12T00:12:29;4.63;;;2.63;;
60853;SDS011;48554;50.766;2.900;2022-09-12T00:14:49;5.43;;;2.80;;
60853;SDS011;48554;50.766;2.900;2022-09-12T00:17:09;8.03;;;3.00;;
60853;SDS011;48554;50.766;2.900;2022-09-12T00:19:29;6.27;;;2.97;;
60853;SDS011;48554;50.766;2.900;2022-09-12T00:21:50;4.87;;;2.67;;
60853;SDS011;48554;50.766;2.900;2022-09-12T00:24:10;5.50;;;2.80;;
60853;SDS011;48554;50.766;2.900;2022-09-12T00:26:30;6.77;;;2.60;;
60853;SDS011;48554;50.766;2.900;2022-09-12T00:28:51;5.30;;;2.60;;
60853;SDS011;48554;50.766;2.900;2022-09-12T00:31:13;5.57;;;2.50;;
60853;SDS011;48554;50.766;2.900;2022-09-12T00:33:38;5.20;;;2.88;;
60853;SDS011;48554;50.766;2.900;2022-09-12T00:36:02;6.40;;;2.67;;
60853;SDS011;48554;50.766;2.900;2022-09-12T00:38:27;4.82;;;2.50;;
60853;SDS011;48554;50.766;2.900;2022-09-12T00:40:48;5.10;;;2.50;;
60853;SDS011;48554;50.766;2.900;2022-09-12T00:43:42;6.43;;;2.27;;
60853;SDS011;48554;50.766;2.900;2022-09-12T00:48:34;5.18;;;2.38;;
60853;SDS011;48554;50.766;2.900;2022-09-12T00:51:00;5.38;;;2.78;;
60853;SDS011;48554;50.766;2.900;2022-09-12T00:53:21;5.50;;;2.67;;
60853;SDS011;48554;50.766;2.900;2022-09-12T00:55:41;4.67;;;2.40;;
60853;SDS011;48554;50.766;2.900;2022-09-12T00:58:08;5.15;;;2.80;;
60853;SDS011;48554;50.766;2.900;2022-09-12T01:00:33;5.70;;;2.58;;
60853;SDS011;48554;50.766;2.900;2022-09-12T01:02:55;5.97;;;3.07;;
60853;SDS011;48554;50.766;2.900;2022-09-12T01:05:18;6.38;;;2.90;;
60853;SDS011;48554;50.766;2.900;2022-09-12T01:07:39;6.43;;;3.25;;
60853;SDS011;48554;50.766;2.900;2022-09-12T01:10:02;5.57;;;2.88;;
60853;SDS011;48554;50.766;2.900;2022-09-12T01:14:43;4.53;;;2.70;;
60853;SDS011;48554;50.766;2.900;2022-09-12T01:17:04;6.50;;;3.00;;
60853;SDS011;48554;50.766;2.900;2022-09-12T01:22:02;6.25;;;3.00;;
60853;SDS011;48554;50.766;2.900;2022-09-12T01:37:51;6.43;;;3.00;;
60853;SDS011;48554;50.766;2.900;2022-09-12T01:40:58;5.70;;;2.72;;
60853;SDS011;48554;50.766;2.900;2022-09-12T01:48:53;6.70;;;2.83;;
60853;SDS011;48554;50.766;2.900;2022-09-12T01:53:47;4.82;;;2.65;;
60853;SDS011;48554;50.766;2.900;2022-09-12T01:56:13;7.38;;;2.47;;
60853;SDS011;48554;50.766;2.900;2022-09-12T01:58:39;3.80;;;2.45;;
60853;SDS011;48554;50.766;2.900;2022-09-12T02:01:05;6.05;;;2.35;;
60853;SDS011;48554;50.766;2.900;2022-09-12T02:03:31;5.90;;;2.22;;
60853;SDS011;48554;50.766;2.900;2022-09-12T02:06:32;4.97;;;2.70;;
60853;SDS011;48554;50.766;2.900;2022-09-12T02:11:52;4.57;;;2.22;;
60853;SDS011;48554;50.766;2.900;2022-09-12T02:14:21;8.13;;;2.60;;
60853;SDS011;48554;50.766;2.900;2022-09-12T02:16:45;5.65;;;2.60;;
60853;SDS011;48554;50.766;2.900;2022-09-12T02:19:16;4.40;;;2.03;;
60853;SDS011;48554;50.766;2.900;2022-09-12T02:21:43;4.25;;;2.30;;
60853;SDS011;48554;50.766;2.900;2022-09-12T02:24:09;5.47;;;2.53;;
60853;SDS011;48554;50.766;2.900;2022-09-12T02:26:35;4.53;;;1.90;;
60853;SDS011;48554;50.766;2.900;2022-09-12T02:29:00;3.90;;;2.13;;
60853;SDS011;48554;50.766;2.900;2022-09-12T02:31:23;5.40;;;2.38;;
60853;SDS011;48554;50.766;2.900;2022-09-12T02:36:25;5.43;;;2.55;;
60853;SDS011;48554;50.766;2.900;2022-09-12T02:39:08;4.65;;;2.53;;
60853;SDS011;48554;50.766;2.900;2022-09-12T02:41:29;5.60;;;2.27;;
60853;SDS011;48554;50.766;2.900;2022-09-12T02:43:49;5.47;;;2.63;;
60853;SDS011;48554;50.766;2.900;2022-09-12T02:46:13;4.25;;;2.40;;
60853;SDS011;48554;50.766;2.900;2022-09-12T02:48:38;5.32;;;2.40;;
60853;SDS011;48554;50.766;2.900;2022-09-12T02:51:01;5.10;;;2.40;;
60853;SDS011;48554;50.766;2.900;2022-09-12T02:53:22;4.73;;;2.30;;
60853;SDS011;48554;50.766;2.900;2022-09-12T02:55:42;4.73;;;2.50;;
60853;SDS011;48554;50.766;2.900;2022-09-12T02:58:04;5.73;;;2.77;;
60853;SDS011;48554;50.766;2.900;2022-09-12T03:00:28;6.30;;;2.65;;
60853;SDS011;48554;50.766;2.900;2022-09-12T03:21:12;4.43;;;2.22;;
60853;SDS011;48554;50.766;2.900;2022-09-12T03:26:16;4.53;;;2.25;;
60853;SDS011;48554;50.766;2.900;2022-09-12T03:28:46;5.20;;;2.65;;
60853;SDS011;48554;50.766;2.900;2022-09-12T03:31:12;4.03;;;2.15;;
60853;SDS011;48554;50.766;2.900;2022-09-12T03:33:34;4.82;;;2.72;;
60853;SDS011;48554;50.766;2.900;2022-09-12T03:35:54;4.87;;;2.50;;
60853;SDS011;48554;50.766;2.900;2022-09-12T03:38:15;3.80;;;2.20;;
60853;SDS011;48554;50.766;2.900;2022-09-12T03:40:36;3.70;;;2.20;;
60853;SDS011;48554;50.766;2.900;2022-09-12T03:45:17;4.28;;;1.95;;
60853;SDS011;48554;50.766;2.900;2022-09-12T03:47:37;5.60;;;2.23;;
60853;SDS011;48554;50.766;2.900;2022-09-12T03:49:58;3.90;;;2.22;;
60853;SDS011;48554;50.766;2.900;2022-09-12T03:52:19;7.33;;;2.43;;
60853;SDS011;48554;50.766;2.900;2022-09-12T03:54:39;5.67;;;2.60;;
60853;SDS011;48554;50.766;2.900;2022-09-12T03:56:59;5.30;;;2.47;;
60853;SDS011;48554;50.766;2.900;2022-09-12T03:59:19;4.77;;;2.20;;
60853;SDS011;48554;50.766;2.900;2022-09-12T04:01:40;3.70;;;2.17;;
60853;SDS011;48554;50.766;2.900;2022-09-12T04:04:00;3.83;;;2.47;;
60853;SDS011;48554;50.766;2.900;2022-09-12T04:06:21;5.27;;;2.80;;
60853;SDS011;48554;50.766;2.900;2022-09-12T04:08:42;5.00;;;2.30;;
60853;SDS011;48554;50.766;2.900;2022-09-12T04:11:07;4.35;;;2.10;;
60853;SDS011;48554;50.766;2.900;2022-09-12T04:13:32;4.65;;;2.13;;
60853;SDS011;48554;50.766;2.900;2022-09-12T04:15:57;5.07;;;2.10;;
60853;SDS011;48554;50.766;2.900;2022-09-12T04:18:18;3.45;;;1.90;;
60853;SDS011;48554;50.766;2.900;2022-09-12T04:20:38;6.57;;;2.43;;
60853;SDS011;48554;50.766;2.900;2022-09-12T04:22:58;4.13;;;2.43;;
60853;SDS011;48554;50.766;2.900;2022-09-12T04:25:19;3.57;;;1.90;;
60853;SDS011;48554;50.766;2.900;2022-09-12T04:27:39;4.43;;;2.20;;
60853;SDS011;48554;50.766;2.900;2022-09-12T04:29:59;3.93;;;2.27;;
60853;SDS011;48554;50.766;2.900;2022-09-12T04:32:19;4.40;;;2.30;;
60853;SDS011;48554;50.766;2.900;2022-09-12T04:34:40;3.70;;;2.20;;
60853;SDS011;48554;50.766;2.900;2022-09-12T04:37:00;3.70;;;2.27;;
60853;SDS011;48554;50.766;2.900;2022-09-12T04:39:21;5.53;;;2.17;;
60853;SDS011;48554;50.766;2.900;2022-09-12T04:41:41;4.90;;;2.50;;
60853;SDS011;48554;50.766;2.900;2022-09-12T04:44:05;3.87;;;2.30;;
60853;SDS011;48554;50.766;2.900;2022-09-12T04:46:30;5.38;;;2.38;;
60853;SDS011;48554;50.766;2.900;2022-09-12T04:48:53;7.10;;;2.78;;
60853;SDS011;48554;50.766;2.900;2022-09-12T04:51:17;4.33;;;2.37;;
60853;SDS011;48554;50.766;2.900;2022-09-12T04:53:40;3.75;;;2.20;;
60853;SDS011;48554;50.766;2.900;2022-09-12T04:56:02;4.32;;;2.17;;
60853;SDS011;48554;50.766;2.900;2022-09-12T04:58:26;4.50;;;2.42;;
60853;SDS011;48554;50.766;2.900;2022-09-12T05:00:46;5.93;;;2.43;;
60853;SDS011;48554;50.766;2.900;2022-09-12T05:03:06;5.83;;;2.37;;
60853;SDS011;48554;50.766;2.900;2022-09-12T05:05:27;5.60;;;2.67;;
60853;SDS011;48554;50.766;2.900;2022-09-12T05:07:47;4.77;;;2.63;;
60853;SDS011;48554;50.766;2.900;2022-09-12T05:10:07;5.53;;;2.57;;
60853;SDS011;48554;50.766;2.900;2022-09-12T05:12:28;4.67;;;2.60;;
60853;SDS011;48554;50.766;2.900;2022-09-12T05:14:49;4.97;;;2.13;;
60853;SDS011;48554;50.766;2.900;2022-09-12T05:17:09;5.37;;;2.77;;
60853;SDS011;48554;50.766;2.900;2022-09-12T05:19:29;5.13;;;3.00;;
60853;SDS011;48554;50.766;2.900;2022-09-12T05:21:50;5.87;;;2.70;;
60853;SDS011;48554;50.766;2.900;2022-09-12T05:24:10;5.30;;;2.93;;
60853;SDS011;48554;50.766;2.900;2022-09-12T05:26:31;5.27;;;3.10;;
60853;SDS011;48554;50.766;2.900;2022-09-12T05:28:51;5.20;;;2.60;;
60853;SDS011;48554;50.766;2.900;2022-09-12T05:31:16;6.03;;;2.90;;
60853;SDS011;48554;50.766;2.900;2022-09-12T05:33:37;5.47;;;2.78;;
60853;SDS011;48554;50.766;2.900;2022-09-12T05:35:58;7.82;;;2.97;;
60853;SDS011;48554;50.766;2.900;2022-09-12T05:38:19;11.47;;;3.40;;
60853;SDS011;48554;50.766;2.900;2022-09-12T05:40:39;5.87;;;2.50;;
60853;SDS011;48554;50.766;2.900;2022-09-12T05:42:59;9.17;;;3.23;;
60853;SDS011;48554;50.766;2.900;2022-09-12T05:45:20;6.10;;;2.87;;
60853;SDS011;48554;50.766;2.900;2022-09-12T05:47:40;9.53;;;3.80;;
60853;SDS011;48554;50.766;2.900;2022-09-12T05:50:00;7.10;;;3.63;;
60853;SDS011;48554;50.766;2.900;2022-09-12T05:52:20;5.43;;;2.53;;
60853;SDS011;48554;50.766;2.900;2022-09-12T05:54:41;9.73;;;3.97;;
60853;SDS011;48554;50.766;2.900;2022-09-12T05:57:01;6.17;;;2.87;;
60853;SDS011;48554;50.766;2.900;2022-09-12T05:59:21;7.40;;;2.97;;
60853;SDS011;48554;50.766;2.900;2022-09-12T06:01:42;8.33;;;3.60;;
60853;SDS011;48554;50.766;2.900;2022-09-12T06:04:03;7.53;;;3.10;;
60853;SDS011;48554;50.766;2.900;2022-09-12T06:06:25;6.63;;;3.08;;
60853;SDS011;48554;50.766;2.900;2022-09-12T06:08:47;5.82;;;3.10;;
60853;SDS011;48554;50.766;2.900;2022-09-12T06:11:19;5.75;;;2.88;;
60853;SDS011;48554;50.766;2.900;2022-09-12T06:13:41;7.40;;;3.47;;
60853;SDS011;48554;50.766;2.900;2022-09-12T06:16:03;9.40;;;3.30;;
60853;SDS011;48554;50.766;2.900;2022-09-12T06:18:25;5.50;;;2.78;;
60853;SDS011;48554;50.766;2.900;2022-09-12T06:20:45;6.03;;;2.87;;
60853;SDS011;48554;50.766;2.900;2022-09-12T06:23:05;6.97;;;3.00;;
60853;SDS011;48554;50.766;2.900;2022-09-12T06:25:26;8.47;;;3.27;;
60853;SDS011;48554;50.766;2.900;2022-09-12T06:27:46;7.37;;;3.03;;
60853;SDS011;48554;50.766;2.900;2022-09-12T06:30:07;7.40;;;3.17;;
60853;SDS011;48554;50.766;2.900;2022-09-12T06:32:28;5.60;;;2.90;;
60853;SDS011;48554;50.766;2.900;2022-09-12T06:37:09;4.90;;;2.70;;
60853;SDS011;48554;50.766;2.900;2022-09-12T06:39:30;7.87;;;3.33;;
60853;SDS011;48554;50.766;2.900;2022-09-12T06:41:50;5.57;;;3.00;;
60853;SDS011;48554;50.766;2.900;2022-09-12T06:44:14;7.53;;;3.23;;
60853;SDS011;48554;50.766;2.900;2022-09-12T06:46:39;9.63;;;3.10;;
60853;SDS011;48554;50.766;2.900;2022-09-12T06:48:59;7.73;;;3.53;;
60853;SDS011;48554;50.766;2.900;2022-09-12T06:51:20;9.07;;;3.60;;
60853;SDS011;48554;50.766;2.900;2022-09-12T06:53:40;8.17;;;3.20;;
60853;SDS011;48554;50.766;2.900;2022-09-12T06:56:05;5.50;;;2.85;;
60853;SDS011;48554;50.766;2.900;2022-09-12T06:58:28;7.72;;;3.40;;
60853;SDS011;48554;50.766;2.900;2022-09-12T07:00:49;7.60;;;3.75;;
60853;SDS011;48554;50.766;2.900;2022-09-12T07:03:10;5.37;;;3.07;;
60853;SDS011;48554;50.766;2.900;2022-09-12T07:05:32;6.53;;;3.17;;
60853;SDS011;48554;50.766;2.900;2022-09-12T07:07:52;5.25;;;2.72;;
60853;SDS011;48554;50.766;2.900;2022-09-12T07:10:13;7.47;;;3.40;;
60853;SDS011;48554;50.766;2.900;2022-09-12T07:12:33;6.70;;;3.13;;
60853;SDS011;48554;50.766;2.900;2022-09-12T07:14:53;7.23;;;3.00;;
60853;SDS011;48554;50.766;2.900;2022-09-12T07:17:13;6.13;;;3.07;;
60853;SDS011;48554;50.766;2.900;2022-09-12T07:19:34;7.00;;;3.13;;
60853;SDS011;48554;50.766;2.900;2022-09-12T07:21:54;6.27;;;3.03;;
60853;SDS011;48554;50.766;2.900;2022-09-12T07:24:14;6.63;;;3.00;;
60853;SDS011;48554;50.766;2.900;2022-09-12T07:26:35;7.27;;;3.30;;
60853;SDS011;48554;50.766;2.900;2022-09-12T07:28:56;6.93;;;3.30;;
60853;SDS011;48554;50.766;2.900;2022-09-12T07:31:17;5.78;;;2.72;;
60853;SDS011;48554;50.766;2.900;2022-09-12T07:33:38;6.63;;;2.83;;
60853;SDS011;48554;50.766;2.900;2022-09-12T07:36:00;7.68;;;3.30;;
60853;SDS011;48554;50.766;2.900;2022-09-12T07:38:22;7.50;;;2.80;;
60853;SDS011;48554;50.766;2.900;2022-09-12T07:40:42;7.43;;;3.50;;
60853;SDS011;48554;50.766;2.900;2022-09-12T07:43:03;6.90;;;3.20;;
60853;SDS011;48554;50.766;2.900;2022-09-12T07:45:23;6.20;;;2.70;;
60853;SDS011;48554;50.766;2.900;2022-09-12T07:47:43;6.67;;;3.33;;
60853;SDS011;48554;50.766;2.900;2022-09-12T07:50:03;5.40;;;2.90;;
60853;SDS011;48554;50.766;2.900;2022-09-12T07:52:24;5.20;;;2.67;;
60853;SDS011;48554;50.766;2.900;2022-09-12T07:54:44;5.63;;;2.37;;
60853;SDS011;48554;50.766;2.900;2022-09-12T07:57:05;5.10;;;2.37;;
60853;SDS011;48554;50.766;2.900;2022-09-12T07:59:25;4.53;;;2.30;;
60853;SDS011;48554;50.766;2.900;2022-09-12T08:01:45;6.83;;;2.30;;
60853;SDS011;48554;50.766;2.900;2022-09-12T08:04:05;5.07;;;2.33;;
60853;SDS011;48554;50.766;2.900;2022-09-12T08:06:26;4.80;;;2.10;;
60853;SDS011;48554;50.766;2.900;2022-09-12T08:08:48;4.68;;;2.40;;
60853;SDS011;48554;50.766;2.900;2022-09-12T08:11:10;5.70;;;2.43;;
60853;SDS011;48554;50.766;2.900;2022-09-12T08:13:33;4.50;;;1.80;;
60853;SDS011;48554;50.766;2.900;2022-09-12T08:16:02;4.97;;;2.55;;
60853;SDS011;48554;50.766;2.900;2022-09-12T08:18:27;4.93;;;2.20;;
60853;SDS011;48554;50.766;2.900;2022-09-12T08:23:14;3.50;;;1.73;;
60853;SDS011;48554;50.766;2.900;2022-09-12T08:25:34;4.57;;;1.93;;
60853;SDS011;48554;50.766;2.900;2022-09-12T08:27:55;2.27;;;1.67;;
60853;SDS011;48554;50.766;2.900;2022-09-12T08:30:15;6.00;;;2.00;;
60853;SDS011;48554;50.766;2.900;2022-09-12T08:32:35;3.53;;;1.90;;
60853;SDS011;48554;50.766;2.900;2022-09-12T08:34:55;6.23;;;1.80;;
60853;SDS011;48554;50.766;2.900;2022-09-12T08:37:16;4.87;;;1.70;;
60853;SDS011;48554;50.766;2.900;2022-09-12T08:39:36;3.17;;;2.00;;
60853;SDS011;48554;50.766;2.900;2022-09-12T08:41:59;3.67;;;1.80;;
60853;SDS011;48554;50.766;2.900;2022-09-12T08:49:58;3.90;;;1.80;;
60853;SDS011;48554;50.766;2.900;2022-09-12T08:52:24;4.70;;;2.08;;
60853;SDS011;48554;50.766;2.900;2022-09-12T08:54:53;4.10;;;1.90;;
60853;SDS011;48554;50.766;2.900;2022-09-12T08:57:14;3.10;;;1.67;;
60853;SDS011;48554;50.766;2.900;2022-09-12T08:59:36;2.60;;;1.80;;
60853;SDS011;48554;50.766;2.900;2022-09-12T09:01:58;4.32;;;2.13;;
60853;SDS011;48554;50.766;2.900;2022-09-12T09:04:23;5.43;;;1.90;;
60853;SDS011;48554;50.766;2.900;2022-09-12T09:06:57;2.75;;;1.50;;
60853;SDS011;48554;50.766;2.900;2022-09-12T09:15:35;2.60;;;1.50;;
60853;SDS011;48554;50.766;2.900;2022-09-12T09:18:22;1.92;;;1.25;;
60853;SDS011;48554;50.766;2.900;2022-09-12T09:20:49;3.10;;;1.65;;
60853;SDS011;48554;50.766;2.900;2022-09-12T09:23:23;2.17;;;1.70;;
60853;SDS011;48554;50.766;2.900;2022-09-12T09:29:03;2.55;;;1.50;;
60853;SDS011;48554;50.766;2.900;2022-09-12T09:31:22;2.55;;;1.45;;
60853;SDS011;48554;50.766;2.900;2022-09-12T09:33:51;3.20;;;1.70;;
60853;SDS011;48554;50.766;2.900;2022-09-12T09:41:44;3.22;;;1.60;;
60853;SDS011;48554;50.766;2.900;2022-09-12T09:44:17;2.60;;;1.60;;
60853;SDS011;48554;50.766;2.900;2022-09-12T09:46:38;3.53;;;1.57;;
60853;SDS011;48554;50.766;2.900;2022-09-12T09:48:58;2.27;;;1.50;;
60853;SDS011;48554;50.766;2.900;2022-09-12T09:51:24;3.17;;;1.70;;
60853;SDS011;48554;50.766;2.900;2022-09-12T09:56:10;4.00;;;1.63;;
60853;SDS011;48554;50.766;2.900;2022-09-12T09:58:52;4.88;;;1.73;;
60853;SDS011;48554;50.766;2.900;2022-09-12T10:01:14;3.87;;;1.80;;
60853;SDS011;48554;50.766;2.900;2022-09-12T10:03:37;2.92;;;1.42;;
60853;SDS011;48554;50.766;2.900;2022-09-12T10:06:00;4.90;;;2.20;;
60853;SDS011;48554;50.766;2.900;2022-09-12T10:08:29;4.10;;;1.63;;
60853;SDS011;48554;50.766;2.900;2022-09-12T10:10:51;4.97;;;1.70;;
60853;SDS011;48554;50.766;2.900;2022-09-12T10:13:24;4.28;;;2.47;;
60853;SDS011;48554;50.766;2.900;2022-09-12T10:16:00;2.83;;;1.52;;
60853;SDS011;48554;50.766;2.900;2022-09-12T10:18:37;2.42;;;1.58;;
60853;SDS011;48554;50.766;2.900;2022-09-12T10:20:59;3.35;;;1.63;;
60853;SDS011;48554;50.766;2.900;2022-09-12T10:23:29;3.63;;;1.63;;
60853;SDS011;48554;50.766;2.900;2022-09-12T10:25:54;3.38;;;1.65;;
60853;SDS011;48554;50.766;2.900;2022-09-12T10:28:20;4.63;;;1.70;;
60853;SDS011;48554;50.766;2.900;2022-09-12T10:30:49;3.47;;;1.67;;
60853;SDS011;48554;50.766;2.900;2022-09-12T10:33:13;2.72;;;1.50;;
60853;SDS011;48554;50.766;2.900;2022-09-12T10:35:44;3.33;;;1.50;;
60853;SDS011;48554;50.766;2.900;2022-09-12T10:38:13;4.63;;;1.70;;
60853;SDS011;48554;50.766;2.900;2022-09-12T10:40:41;2.22;;;1.20;;
60853;SDS011;48554;50.766;2.900;2022-09-12T10:43:02;3.08;;;1.60;;
60853;SDS011;48554;50.766;2.900;2022-09-12T10:45:36;2.13;;;1.42;;
60853;SDS011;48554;50.766;2.900;2022-09-12T10:47:58;3.53;;;1.70;;
60853;SDS011;48554;50.766;2.900;2022-09-12T10:50:26;4.30;;;1.40;;
60853;SDS011;48554;50.766;2.900;2022-09-12T10:52:50;2.03;;;1.30;;
60853;SDS011;48554;50.766;2.900;2022-09-12T10:55:13;3.43;;;1.60;;
60853;SDS011;48554;50.766;2.900;2022-09-12T10:57:38;2.22;;;1.45;;
60853;SDS011;48554;50.766;2.900;2022-09-12T11:08:13;2.60;;;1.40;;
60853;SDS011;48554;50.766;2.900;2022-09-12T11:10:41;3.60;;;1.23;;
60853;SDS011;48554;50.766;2.900;2022-09-12T11:34:08;2.15;;;1.20;;
60853;SDS011;48554;50.766;2.900;2022-09-12T11:39:00;1.90;;;1.20;;
60853;SDS011;48554;50.766;2.900;2022-09-12T11:41:41;2.83;;;1.33;;
60853;SDS011;48554;50.766;2.900;2022-09-12T11:44:23;2.33;;;1.08;;
60853;SDS011;48554;50.766;2.900;2022-09-12T11:46:48;2.42;;;1.20;;
60853;SDS011;48554;50.766;2.900;2022-09-12T11:51:40;2.07;;;1.07;;
60853;SDS011;48554;50.766;2.900;2022-09-12T11:54:17;1.70;;;0.98;;
60853;SDS011;48554;50.766;2.900;2022-09-12T11:56:46;2.47;;;1.08;;
60853;SDS011;48554;50.766;2.900;2022-09-12T11:59:14;2.33;;;0.90;;
60853;SDS011;48554;50.766;2.900;2022-09-12T12:01:49;2.25;;;0.88;;
60853;SDS011;48554;50.766;2.900;2022-09-12T12:04:14;2.75;;;1.08;;
60853;SDS011;48554;50.766;2.900;2022-09-12T12:06:51;2.53;;;1.23;;
60853;SDS011;48554;50.766;2.900;2022-09-12T12:09:16;2.42;;;1.00;;
60853;SDS011;48554;50.766;2.900;2022-09-12T12:11:39;2.13;;;1.00;;
60853;SDS011;48554;50.766;2.900;2022-09-12T12:14:11;1.40;;;1.02;;
60853;SDS011;48554;50.766;2.900;2022-09-12T12:16:37;1.80;;;0.90;;
60853;SDS011;48554;50.766;2.900;2022-09-12T12:19:00;1.45;;;0.90;;
60853;SDS011;48554;50.766;2.900;2022-09-12T12:27:00;1.38;;;0.63;;
60853;SDS011;48554;50.766;2.900;2022-09-12T12:29:36;1.42;;;1.02;;
60853;SDS011;48554;50.766;2.900;2022-09-12T12:34:20;1.73;;;1.10;;
60853;SDS011;48554;50.766;2.900;2022-09-12T12:36:46;0.77;;;0.77;;
60853;SDS011;48554;50.766;2.900;2022-09-12T12:41:51;1.95;;;1.00;;
60853;SDS011;48554;50.766;2.900;2022-09-12T12:44:53;1.63;;;1.27;;
60853;SDS011;48554;50.766;2.900;2022-09-12T12:49:33;2.53;;;0.98;;
60853;SDS011;48554;50.766;2.900;2022-09-12T12:51:54;1.07;;;0.87;;
60853;SDS011;48554;50.766;2.900;2022-09-12T12:54:31;3.55;;;1.20;;
60853;SDS011;48554;50.766;2.900;2022-09-12T12:59:50;2.08;;;0.90;;
60853;SDS011;48554;50.766;2.900;2022-09-12T13:02:47;3.22;;;1.15;;
60853;SDS011;48554;50.766;2.900;2022-09-12T13:05:18;1.48;;;1.10;;
60853;SDS011;48554;50.766;2.900;2022-09-12T13:07:40;0.98;;;0.80;;
60853;SDS011;48554;50.766;2.900;2022-09-12T13:10:04;1.33;;;0.80;;
60853;SDS011;48554;50.766;2.900;2022-09-12T13:12:27;1.40;;;0.90;;
60853;SDS011;48554;50.766;2.900;2022-09-12T13:14:52;2.97;;;1.10;;
60853;SDS011;48554;50.766;2.900;2022-09-12T13:17:30;1.10;;;0.80;;
60853;SDS011;48554;50.766;2.900;2022-09-12T13:22:22;2.03;;;1.20;;
60853;SDS011;48554;50.766;2.900;2022-09-12T13:24:46;3.50;;;1.17;;
60853;SDS011;48554;50.766;2.900;2022-09-12T13:27:16;1.85;;;0.90;;
60853;SDS011;48554;50.766;2.900;2022-09-12T13:29:38;1.20;;;0.90;;
60853;SDS011;48554;50.766;2.900;2022-09-12T13:31:59;1.53;;;0.73;;
60853;SDS011;48554;50.766;2.900;2022-09-12T13:34:32;2.08;;;0.80;;
60853;SDS011;48554;50.766;2.900;2022-09-12T13:39:46;1.40;;;0.90;;
60853;SDS011;48554;50.766;2.900;2022-09-12T13:45:02;0.95;;;0.82;;
60853;SDS011;48554;50.766;2.900;2022-09-12T13:50:03;0.98;;;0.60;;
60853;SDS011;48554;50.766;2.900;2022-09-12T13:52:27;1.25;;;0.80;;
60853;SDS011;48554;50.766;2.900;2022-09-12T13:54:52;1.75;;;0.70;;
60853;SDS011;48554;50.766;2.900;2022-09-12T14:02:27;0.88;;;0.60;;
60853;SDS011;48554;50.766;2.900;2022-09-12T14:04:48;1.65;;;0.70;;
60853;SDS011;48554;50.766;2.900;2022-09-12T14:07:16;1.45;;;0.80;;
60853;SDS011;48554;50.766;2.900;2022-09-12T14:09:40;1.75;;;1.00;;
60853;SDS011;48554;50.766;2.900;2022-09-12T14:12:03;2.33;;;0.80;;
60853;SDS011;48554;50.766;2.900;2022-09-12T14:14:32;1.80;;;0.82;;
60853;SDS011;48554;50.766;2.900;2022-09-12T14:16:55;1.95;;;0.88;;
60853;SDS011;48554;50.766;2.900;2022-09-12T14:19:16;0.85;;;0.70;;
60853;SDS011;48554;50.766;2.900;2022-09-12T14:21:37;1.03;;;0.63;;
60853;SDS011;48554;50.766;2.900;2022-09-12T14:23:57;0.77;;;0.70;;
60853;SDS011;48554;50.766;2.900;2022-09-12T14:26:18;1.30;;;0.90;;
60853;SDS011;48554;50.766;2.900;2022-09-12T14:28:39;1.43;;;0.80;;
60853;SDS011;48554;50.766;2.900;2022-09-12T14:33:24;2.10;;;1.02;;
60853;SDS011;48554;50.766;2.900;2022-09-12T14:35:45;2.23;;;0.90;;
60853;SDS011;48554;50.766;2.900;2022-09-12T14:38:12;1.45;;;0.80;;
60853;SDS011;48554;50.766;2.900;2022-09-12T14:40:40;1.13;;;0.70;;
60853;SDS011;48554;50.766;2.900;2022-09-12T14:45:53;0.93;;;0.68;;
60853;SDS011;48554;50.766;2.900;2022-09-12T14:48:16;1.38;;;0.63;;
60853;SDS011;48554;50.766;2.900;2022-09-12T14:50:38;1.20;;;0.75;;
60853;SDS011;48554;50.766;2.900;2022-09-12T14:53:05;1.97;;;0.80;;
60853;SDS011;48554;50.766;2.900;2022-09-12T14:55:27;1.25;;;0.65;;
60853;SDS011;48554;50.766;2.900;2022-09-12T14:58:05;1.52;;;0.82;;
60853;SDS011;48554;50.766;2.900;2022-09-12T15:00:32;1.30;;;0.70;;
60853;SDS011;48554;50.766;2.900;2022-09-12T15:02:52;2.70;;;0.80;;
60853;SDS011;48554;50.766;2.900;2022-09-12T15:05:15;1.40;;;0.90;;
60853;SDS011;48554;50.766;2.900;2022-09-12T15:07:42;1.10;;;0.65;;
60853;SDS011;48554;50.766;2.900;2022-09-12T15:12:44;1.85;;;0.73;;
60853;SDS011;48554;50.766;2.900;2022-09-12T15:15:18;1.00;;;0.70;;
60853;SDS011;48554;50.766;2.900;2022-09-12T15:17:39;1.90;;;0.90;;
60853;SDS011;48554;50.766;2.900;2022-09-12T15:19:59;1.37;;;0.60;;
60853;SDS011;48554;50.766;2.900;2022-09-12T15:22:20;0.93;;;0.70;;
60853;SDS011;48554;50.766;2.900;2022-09-12T15:24:43;1.25;;;0.70;;
60853;SDS011;48554;50.766;2.900;2022-09-12T15:27:12;1.27;;;0.80;;
60853;SDS011;48554;50.766;2.900;2022-09-12T15:29:33;1.25;;;0.85;;
60853;SDS011;48554;50.766;2.900;2022-09-12T15:31:53;1.80;;;0.63;;
60853;SDS011;48554;50.766;2.900;2022-09-12T15:34:13;0.97;;;0.73;;
60853;SDS011;48554;50.766;2.900;2022-09-12T15:36:33;2.03;;;0.70;;
60853;SDS011;48554;50.766;2.900;2022-09-12T15:38:54;1.97;;;0.90;;
60853;SDS011;48554;50.766;2.900;2022-09-12T15:41:15;1.70;;;0.90;;
60853;SDS011;48554;50.766;2.900;2022-09-12T15:43:48;2.65;;;1.17;;
60853;SDS011;48554;50.766;2.900;2022-09-12T15:46:10;1.67;;;0.80;;
60853;SDS011;48554;50.766;2.900;2022-09-12T15:48:31;1.85;;;0.65;;
60853;SDS011;48554;50.766;2.900;2022-09-12T15:50:52;1.30;;;0.80;;
60853;SDS011;48554;50.766;2.900;2022-09-12T15:53:13;1.83;;;0.60;;
60853;SDS011;48554;50.766;2.900;2022-09-12T15:55:34;2.72;;;0.85;;
60853;SDS011;48554;50.766;2.900;2022-09-12T15:57:55;2.90;;;0.80;;
60853;SDS011;48554;50.766;2.900;2022-09-12T16:00:16;1.33;;;0.67;;
60853;SDS011;48554;50.766;2.900;2022-09-12T16:02:37;1.92;;;0.70;;
60853;SDS011;48554;50.766;2.900;2022-09-12T16:04:57;1.50;;;0.80;;
60853;SDS011;48554;50.766;2.900;2022-09-12T16:07:17;1.53;;;0.77;;
60853;SDS011;48554;50.766;2.900;2022-09-12T16:09:37;1.13;;;0.70;;
60853;SDS011;48554;50.766;2.900;2022-09-12T16:11:58;1.50;;;0.80;;
60853;SDS011;48554;50.766;2.900;2022-09-12T16:14:18;1.00;;;0.70;;
60853;SDS011;48554;50.766;2.900;2022-09-12T16:16:39;1.20;;;0.77;;
60853;SDS011;48554;50.766;2.900;2022-09-12T16:18:59;1.40;;;0.77;;
60853;SDS011;48554;50.766;2.900;2022-09-12T16:21:20;1.93;;;0.70;;
60853;SDS011;48554;50.766;2.900;2022-09-12T16:23:43;1.33;;;0.80;;
60853;SDS011;48554;50.766;2.900;2022-09-12T16:26:05;2.40;;;0.82;;
60853;SDS011;48554;50.766;2.900;2022-09-12T16:28:25;2.90;;;1.00;;
60853;SDS011;48554;50.766;2.900;2022-09-12T16:30:53;1.67;;;0.70;;
60853;SDS011;48554;50.766;2.900;2022-09-12T16:33:17;3.83;;;0.70;;
60853;SDS011;48554;50.766;2.900;2022-09-12T16:35:37;1.60;;;0.60;;
60853;SDS011;48554;50.766;2.900;2022-09-12T16:37:57;2.10;;;0.87;;
60853;SDS011;48554;50.766;2.900;2022-09-12T16:40:17;1.27;;;0.67;;
60853;SDS011;48554;50.766;2.900;2022-09-12T16:42:38;5.53;;;0.70;;
60853;SDS011;48554;50.766;2.900;2022-09-12T16:44:58;0.70;;;0.60;;
60853;SDS011;48554;50.766;2.900;2022-09-12T16:47:18;3.30;;;0.80;;
60853;SDS011;48554;50.766;2.900;2022-09-12T16:49:39;2.10;;;0.80;;
60853;SDS011;48554;50.766;2.900;2022-09-12T16:51:59;0.90;;;0.70;;
60853;SDS011;48554;50.766;2.900;2022-09-12T16:54:19;1.10;;;0.77;;
60853;SDS011;48554;50.766;2.900;2022-09-12T16:56:40;1.47;;;0.80;;
60853;SDS011;48554;50.766;2.900;2022-09-12T16:59:00;1.50;;;0.80;;
60853;SDS011;48554;50.766;2.900;2022-09-12T17:01:21;2.33;;;0.63;;
60853;SDS011;48554;50.766;2.900;2022-09-12T17:03:43;1.92;;;0.75;;
60853;SDS011;48554;50.766;2.900;2022-09-12T17:06:07;3.13;;;0.80;;